Terminal Aerodrome Forecast
Issued by NWS Dodge City, KS

Home | Current Version | Previous Version | Text Only | Print | Product List | Glossary On
Versions: 1 2 3 4 5 6 7 8 9 10 11 12 13 14 15 16
000
FTUS43 KDDC 300538
TAFDDC
TAF
KDDC 300538Z 3006/0106 01027G34KT 2SM -RASN BR OVC003
     FM301000 34017KT 1SM -SN BR OVC008
     FM302200 33027G36KT P6SM VCSH OVC010
     FM010000 33024G32KT P6SM OVC025
     FM010200 31022G30KT P6SM BKN045=

USA.gov is the U.S. government's official web portal to all federal, state and local government web resources and services.